Terminal Aerodrome Forecast
Issued by NWS

Home | Current Version | Previous Version | Text Only | Print | Product List | Glossary On
Versions: 1 2 3 4 5 6 7 8 9 10 11 12 13 14 15 16 17 18 19 20 21 22 23
046
FTUS41 KGYX 262320
TAFAUG
TAF
KAUG 262320Z 2700/2724 17007KT P6SM OVC080
     FM270300 12004KT P6SM OVC040
     FM270700 10004KT 4SM -SNPL BR BKN020 OVC050
     FM271100 10004KT 1SM -FZRASNPL BR BKN003 OVC015
     FM271800 09005KT 1SM -RADZ BR OVC003=

USA.gov is the U.S. government's official web portal to all federal, state and local government web resources and services.